Hughesville, Missouri
Current Conditions -  °F | °C
As of 9:53 AM on Saturday 20 Dec 2014 (Local Time) from KDMO Reporting Station
Overcast Overcast  
Wind Chill: 31°   Ceiling: 700
Heat Index: 38°   Visibility: 9mi
Dew Point: 35°   Wind: 9mph
Humidity: 89%   Direction: 230°SW
Pressure: 30.23"   Gusts: NA
Location:  38.84°N, 93.3°W
Report Text: KDMO 201553Z AUTO 23008KT 9SM OVC007 03/02 A3023 RMK AO2 CIG 006V011 SLP244 T00330017
Loading
Personal Weather Stations






























Interactive Weather Map New forecast layout! Learn more

10-Day Weather Forecast

Advertisements
Track Severe Weather on mobile